< < Back
Terminal Aerodrome Forecast


Current Version              Previous Versions:   1  2  3  4  5  6  7  8  9  

Terminal Aerodrome Forecast

054
FTUS42 KGSP 261120
TAFGSP
TAF
KGSP 261120Z 2612/2712 21004KT P6SM BKN120
     FM261600 23008KT P6SM BKN060 PROB30 2621/2701 4SM -TSRA
      OVC025CB
     FM270100 19003KT P6SM BKN060
     FM271000 21003KT P6SM SCT060 BKN120=



Latest METAR

587
SAUS70 KWBC 261556
MTRGSP
METAR KGSP 261553Z VRB05KT 10SM CLR 28/16 A3018 RMK AO2 SLP208
T02780156


USA.gov is the U.S. government's official web portal to all federal, state and local government web resources and services.